sensor_id;sensor_type;location;lat;lon;timestamp;temperature;humidity
22908;DHT22;11620;50.050;8.690;2023-07-31T00:00:12;16.10;99.90
22908;DHT22;11620;50.050;8.690;2023-07-31T00:02:58;16.20;99.90
22908;DHT22;11620;50.050;8.690;2023-07-31T00:05:44;16.20;99.90
22908;DHT22;11620;50.050;8.690;2023-07-31T00:08:31;16.20;99.90
22908;DHT22;11620;50.050;8.690;2023-07-31T00:11:17;16.10;99.90
22908;DHT22;11620;50.050;8.690;2023-07-31T00:14:03;16.00;99.90
22908;DHT22;11620;50.050;8.690;2023-07-31T00:16:50;16.10;99.90
22908;DHT22;11620;50.050;8.690;2023-07-31T00:19:36;16.10;99.90
22908;DHT22;11620;50.050;8.690;2023-07-31T00:22:22;16.20;99.90
22908;DHT22;11620;50.050;8.690;2023-07-31T00:25:09;16.20;99.90
22908;DHT22;11620;50.050;8.690;2023-07-31T00:27:55;16.20;99.90
22908;DHT22;11620;50.050;8.690;2023-07-31T00:30:41;16.10;99.90
22908;DHT22;11620;50.050;8.690;2023-07-31T00:33:27;16.10;99.90
22908;DHT22;11620;50.050;8.690;2023-07-31T00:36:14;16.20;99.90
22908;DHT22;11620;50.050;8.690;2023-07-31T00:39:00;16.30;99.90
22908;DHT22;11620;50.050;8.690;2023-07-31T00:41:46;16.20;99.90
22908;DHT22;11620;50.050;8.690;2023-07-31T00:44:33;16.20;99.90
22908;DHT22;11620;50.050;8.690;2023-07-31T00:47:19;16.10;99.90
22908;DHT22;11620;50.050;8.690;2023-07-31T00:50:07;16.20;99.90
22908;DHT22;11620;50.050;8.690;2023-07-31T00:52:53;16.20;99.90
22908;DHT22;11620;50.050;8.690;2023-07-31T00:55:40;16.20;99.90
22908;DHT22;11620;50.050;8.690;2023-07-31T00:58:26;16.10;99.90
22908;DHT22;11620;50.050;8.690;2023-07-31T01:01:12;16.10;99.90
22908;DHT22;11620;50.050;8.690;2023-07-31T01:03:59;16.10;99.90
22908;DHT22;11620;50.050;8.690;2023-07-31T01:10:03;16.10;99.90
22908;DHT22;11620;50.050;8.690;2023-07-31T01:12:51;16.20;99.90
22908;DHT22;11620;50.050;8.690;2023-07-31T01:15:38;16.20;99.90
22908;DHT22;11620;50.050;8.690;2023-07-31T01:18:25;16.10;99.90
22908;DHT22;11620;50.050;8.690;2023-07-31T01:27:47;16.10;99.90
22908;DHT22;11620;50.050;8.690;2023-07-31T01:30:48;16.20;99.90
22908;DHT22;11620;50.050;8.690;2023-07-31T01:33:35;16.20;99.90
22908;DHT22;11620;50.050;8.690;2023-07-31T01:36:22;16.20;99.90
22908;DHT22;11620;50.050;8.690;2023-07-31T01:39:08;16.10;99.90
22908;DHT22;11620;50.050;8.690;2023-07-31T01:41:55;16.20;99.90
22908;DHT22;11620;50.050;8.690;2023-07-31T01:44:41;16.20;99.90
22908;DHT22;11620;50.050;8.690;2023-07-31T01:47:27;16.20;99.90
22908;DHT22;11620;50.050;8.690;2023-07-31T01:50:14;16.20;99.90
22908;DHT22;11620;50.050;8.690;2023-07-31T01:53:00;16.10;99.90
22908;DHT22;11620;50.050;8.690;2023-07-31T01:55:46;16.10;99.90
22908;DHT22;11620;50.050;8.690;2023-07-31T01:58:33;16.10;99.90
22908;DHT22;11620;50.050;8.690;2023-07-31T02:01:19;16.10;99.90
22908;DHT22;11620;50.050;8.690;2023-07-31T02:04:05;16.20;99.90
22908;DHT22;11620;50.050;8.690;2023-07-31T02:06:53;16.20;99.90
22908;DHT22;11620;50.050;8.690;2023-07-31T02:09:40;16.20;99.90
22908;DHT22;11620;50.050;8.690;2023-07-31T02:12:26;16.20;99.90
22908;DHT22;11620;50.050;8.690;2023-07-31T02:15:12;16.20;99.90
22908;DHT22;11620;50.050;8.690;2023-07-31T02:17:59;16.30;99.90
22908;DHT22;11620;50.050;8.690;2023-07-31T02:20:52;16.20;99.90
22908;DHT22;11620;50.050;8.690;2023-07-31T02:23:38;16.30;99.90
22908;DHT22;11620;50.050;8.690;2023-07-31T02:26:24;16.30;99.90
22908;DHT22;11620;50.050;8.690;2023-07-31T02:29:11;16.30;99.90
22908;DHT22;11620;50.050;8.690;2023-07-31T02:31:57;16.30;99.90
22908;DHT22;11620;50.050;8.690;2023-07-31T02:34:44;16.20;99.90
22908;DHT22;11620;50.050;8.690;2023-07-31T02:37:30;16.20;99.90
22908;DHT22;11620;50.050;8.690;2023-07-31T02:40:16;16.20;99.90
22908;DHT22;11620;50.050;8.690;2023-07-31T02:43:03;16.20;99.90
22908;DHT22;11620;50.050;8.690;2023-07-31T02:45:52;16.30;99.90
22908;DHT22;11620;50.050;8.690;2023-07-31T02:48:39;16.40;99.90
22908;DHT22;11620;50.050;8.690;2023-07-31T02:51:25;16.40;99.90
22908;DHT22;11620;50.050;8.690;2023-07-31T02:54:12;16.40;99.90
22908;DHT22;11620;50.050;8.690;2023-07-31T02:56:58;16.30;99.90
22908;DHT22;11620;50.050;8.690;2023-07-31T02:59:44;16.30;99.90
22908;DHT22;11620;50.050;8.690;2023-07-31T03:02:30;16.30;99.90
22908;DHT22;11620;50.050;8.690;2023-07-31T03:05:17;16.30;99.90
22908;DHT22;11620;50.050;8.690;2023-07-31T03:08:03;16.30;99.90
22908;DHT22;11620;50.050;8.690;2023-07-31T03:10:50;16.20;99.90
22908;DHT22;11620;50.050;8.690;2023-07-31T03:13:36;16.30;99.90
22908;DHT22;11620;50.050;8.690;2023-07-31T03:16:22;16.20;99.90
22908;DHT22;11620;50.050;8.690;2023-07-31T03:19:09;16.20;99.90
22908;DHT22;11620;50.050;8.690;2023-07-31T03:21:55;16.30;99.90
22908;DHT22;11620;50.050;8.690;2023-07-31T03:24:41;16.10;99.90
22908;DHT22;11620;50.050;8.690;2023-07-31T03:27:27;15.90;99.90
22908;DHT22;11620;50.050;8.690;2023-07-31T03:30:14;16.00;99.90
22908;DHT22;11620;50.050;8.690;2023-07-31T03:33:00;15.90;99.90
22908;DHT22;11620;50.050;8.690;2023-07-31T03:35:46;15.70;99.90
22908;DHT22;11620;50.050;8.690;2023-07-31T03:38:34;15.60;99.90
22908;DHT22;11620;50.050;8.690;2023-07-31T03:41:20;15.50;99.90
22908;DHT22;11620;50.050;8.690;2023-07-31T03:44:07;15.40;99.90
22908;DHT22;11620;50.050;8.690;2023-07-31T03:46:53;15.40;99.90
22908;DHT22;11620;50.050;8.690;2023-07-31T03:49:40;15.40;99.90
22908;DHT22;11620;50.050;8.690;2023-07-31T03:52:26;15.50;99.90
22908;DHT22;11620;50.050;8.690;2023-07-31T03:55:12;15.40;99.90
22908;DHT22;11620;50.050;8.690;2023-07-31T03:57:59;15.40;99.90
22908;DHT22;11620;50.050;8.690;2023-07-31T04:00:47;15.50;99.90
22908;DHT22;11620;50.050;8.690;2023-07-31T04:03:33;15.40;99.90
22908;DHT22;11620;50.050;8.690;2023-07-31T04:06:19;15.30;99.90
22908;DHT22;11620;50.050;8.690;2023-07-31T04:09:06;15.40;99.90
22908;DHT22;11620;50.050;8.690;2023-07-31T04:11:52;15.40;99.90
22908;DHT22;11620;50.050;8.690;2023-07-31T04:14:39;15.30;99.90
22908;DHT22;11620;50.050;8.690;2023-07-31T04:17:25;15.30;99.90
22908;DHT22;11620;50.050;8.690;2023-07-31T04:20:11;15.30;99.90
22908;DHT22;11620;50.050;8.690;2023-07-31T04:22:58;15.30;99.90
22908;DHT22;11620;50.050;8.690;2023-07-31T04:25:44;15.20;99.90
22908;DHT22;11620;50.050;8.690;2023-07-31T04:28:30;15.20;99.90
22908;DHT22;11620;50.050;8.690;2023-07-31T04:31:17;15.20;99.90
22908;DHT22;11620;50.050;8.690;2023-07-31T04:34:04;15.20;99.90
22908;DHT22;11620;50.050;8.690;2023-07-31T04:36:50;15.30;99.90
22908;DHT22;11620;50.050;8.690;2023-07-31T04:39:37;15.30;99.90
22908;DHT22;11620;50.050;8.690;2023-07-31T04:42:23;15.30;99.90
22908;DHT22;11620;50.050;8.690;2023-07-31T04:45:09;15.30;99.90
22908;DHT22;11620;50.050;8.690;2023-07-31T04:47:56;15.30;99.90
22908;DHT22;11620;50.050;8.690;2023-07-31T04:50:42;15.30;99.90
22908;DHT22;11620;50.050;8.690;2023-07-31T04:53:28;15.30;99.90
22908;DHT22;11620;50.050;8.690;2023-07-31T04:56:16;15.50;99.90
22908;DHT22;11620;50.050;8.690;2023-07-31T04:59:02;15.40;99.90
22908;DHT22;11620;50.050;8.690;2023-07-31T05:01:48;15.40;99.90
22908;DHT22;11620;50.050;8.690;2023-07-31T05:04:35;15.40;99.90
22908;DHT22;11620;50.050;8.690;2023-07-31T05:07:21;15.40;99.90
22908;DHT22;11620;50.050;8.690;2023-07-31T05:10:07;15.40;99.90
22908;DHT22;11620;50.050;8.690;2023-07-31T05:12:54;15.50;99.90
22908;DHT22;11620;50.050;8.690;2023-07-31T05:15:41;15.40;99.90
22908;DHT22;11620;50.050;8.690;2023-07-31T05:18:27;15.40;99.90
22908;DHT22;11620;50.050;8.690;2023-07-31T05:21:14;15.50;99.90
22908;DHT22;11620;50.050;8.690;2023-07-31T05:24:00;15.50;99.90
22908;DHT22;11620;50.050;8.690;2023-07-31T05:26:46;15.50;99.90
22908;DHT22;11620;50.050;8.690;2023-07-31T05:29:33;15.30;99.90
22908;DHT22;11620;50.050;8.690;2023-07-31T05:32:19;15.30;99.90
22908;DHT22;11620;50.050;8.690;2023-07-31T05:35:05;15.40;99.90
22908;DHT22;11620;50.050;8.690;2023-07-31T05:37:52;15.50;99.90
22908;DHT22;11620;50.050;8.690;2023-07-31T05:40:38;15.50;99.90
22908;DHT22;11620;50.050;8.690;2023-07-31T05:43:24;15.40;99.90
22908;DHT22;11620;50.050;8.690;2023-07-31T05:46:11;15.60;99.90
22908;DHT22;11620;50.050;8.690;2023-07-31T05:48:58;15.60;99.90
22908;DHT22;11620;50.050;8.690;2023-07-31T05:51:46;15.50;99.90
22908;DHT22;11620;50.050;8.690;2023-07-31T05:54:33;15.50;99.90
22908;DHT22;11620;50.050;8.690;2023-07-31T05:57:19;15.60;99.90
22908;DHT22;11620;50.050;8.690;2023-07-31T06:00:07;15.60;99.90
22908;DHT22;11620;50.050;8.690;2023-07-31T06:02:53;15.70;99.90
22908;DHT22;11620;50.050;8.690;2023-07-31T06:05:39;15.60;99.90
22908;DHT22;11620;50.050;8.690;2023-07-31T06:08:26;15.70;99.90
22908;DHT22;11620;50.050;8.690;2023-07-31T06:11:12;15.60;99.90
22908;DHT22;11620;50.050;8.690;2023-07-31T06:13:58;15.70;99.90
22908;DHT22;11620;50.050;8.690;2023-07-31T06:16:45;15.70;99.90
22908;DHT22;11620;50.050;8.690;2023-07-31T06:19:31;15.80;99.90
22908;DHT22;11620;50.050;8.690;2023-07-31T06:22:18;15.80;99.90
22908;DHT22;11620;50.050;8.690;2023-07-31T06:25:04;15.80;99.90
22908;DHT22;11620;50.050;8.690;2023-07-31T06:27:51;16.00;99.90
22908;DHT22;11620;50.050;8.690;2023-07-31T06:30:37;16.10;99.90
22908;DHT22;11620;50.050;8.690;2023-07-31T06:33:24;16.20;99.90
22908;DHT22;11620;50.050;8.690;2023-07-31T06:36:10;16.30;99.90
22908;DHT22;11620;50.050;8.690;2023-07-31T06:38:57;16.30;99.90
22908;DHT22;11620;50.050;8.690;2023-07-31T06:41:44;16.20;99.90
22908;DHT22;11620;50.050;8.690;2023-07-31T06:44:30;16.20;99.90
22908;DHT22;11620;50.050;8.690;2023-07-31T06:47:16;16.30;99.90
22908;DHT22;11620;50.050;8.690;2023-07-31T06:50:03;16.40;99.90
22908;DHT22;11620;50.050;8.690;2023-07-31T06:52:49;16.60;99.90
22908;DHT22;11620;50.050;8.690;2023-07-31T06:55:36;16.70;99.90
22908;DHT22;11620;50.050;8.690;2023-07-31T06:58:22;16.70;99.90
22908;DHT22;11620;50.050;8.690;2023-07-31T07:01:09;16.70;99.90
22908;DHT22;11620;50.050;8.690;2023-07-31T07:03:55;16.50;99.90
22908;DHT22;11620;50.050;8.690;2023-07-31T07:06:41;16.60;99.90
22908;DHT22;11620;50.050;8.690;2023-07-31T07:09:28;16.60;99.90
22908;DHT22;11620;50.050;8.690;2023-07-31T07:12:14;16.60;99.90
22908;DHT22;11620;50.050;8.690;2023-07-31T07:15:01;16.50;99.90
22908;DHT22;11620;50.050;8.690;2023-07-31T07:17:48;16.50;99.90
22908;DHT22;11620;50.050;8.690;2023-07-31T07:20:34;16.40;99.90
22908;DHT22;11620;50.050;8.690;2023-07-31T07:23:20;16.60;99.90
22908;DHT22;11620;50.050;8.690;2023-07-31T07:26:07;16.50;99.90
22908;DHT22;11620;50.050;8.690;2023-07-31T07:28:53;16.50;99.90
22908;DHT22;11620;50.050;8.690;2023-07-31T07:31:39;16.40;99.90
22908;DHT22;11620;50.050;8.690;2023-07-31T07:34:26;16.50;99.90
22908;DHT22;11620;50.050;8.690;2023-07-31T07:37:13;16.90;99.90
22908;DHT22;11620;50.050;8.690;2023-07-31T07:39:59;17.40;99.90
22908;DHT22;11620;50.050;8.690;2023-07-31T07:42:45;17.70;99.90
22908;DHT22;11620;50.050;8.690;2023-07-31T07:45:32;17.50;99.90
22908;DHT22;11620;50.050;8.690;2023-07-31T07:48:18;17.60;99.90
22908;DHT22;11620;50.050;8.690;2023-07-31T07:51:05;17.80;99.90
22908;DHT22;11620;50.050;8.690;2023-07-31T07:53:51;17.80;99.90
22908;DHT22;11620;50.050;8.690;2023-07-31T07:56:37;17.80;99.90
22908;DHT22;11620;50.050;8.690;2023-07-31T07:59:24;17.90;99.90
22908;DHT22;11620;50.050;8.690;2023-07-31T08:02:10;17.90;99.90
22908;DHT22;11620;50.050;8.690;2023-07-31T08:04:56;17.80;99.90
22908;DHT22;11620;50.050;8.690;2023-07-31T08:07:43;17.90;99.90
22908;DHT22;11620;50.050;8.690;2023-07-31T08:10:29;17.80;99.90
22908;DHT22;11620;50.050;8.690;2023-07-31T08:13:15;18.10;99.90
22908;DHT22;11620;50.050;8.690;2023-07-31T08:16:03;18.00;99.90
22908;DHT22;11620;50.050;8.690;2023-07-31T08:18:50;17.80;99.90
22908;DHT22;11620;50.050;8.690;2023-07-31T08:21:36;17.80;99.90
22908;DHT22;11620;50.050;8.690;2023-07-31T08:24:22;17.50;99.90
22908;DHT22;11620;50.050;8.690;2023-07-31T08:27:09;17.50;99.90
22908;DHT22;11620;50.050;8.690;2023-07-31T08:29:55;17.50;99.90
22908;DHT22;11620;50.050;8.690;2023-07-31T08:32:41;17.60;99.90
22908;DHT22;11620;50.050;8.690;2023-07-31T08:35:28;17.60;99.90
22908;DHT22;11620;50.050;8.690;2023-07-31T08:38:14;17.80;99.90
22908;DHT22;11620;50.050;8.690;2023-07-31T08:41:03;17.90;99.90
22908;DHT22;11620;50.050;8.690;2023-07-31T08:43:50;17.90;99.90
22908;DHT22;11620;50.050;8.690;2023-07-31T08:46:38;18.00;99.90
22908;DHT22;11620;50.050;8.690;2023-07-31T08:49:24;18.10;99.90
22908;DHT22;11620;50.050;8.690;2023-07-31T08:52:11;18.10;99.90
22908;DHT22;11620;50.050;8.690;2023-07-31T08:54:58;18.00;99.90
22908;DHT22;11620;50.050;8.690;2023-07-31T08:57:46;18.10;99.90
22908;DHT22;11620;50.050;8.690;2023-07-31T09:00:32;18.10;99.90
22908;DHT22;11620;50.050;8.690;2023-07-31T09:03:22;18.30;99.90
22908;DHT22;11620;50.050;8.690;2023-07-31T09:06:09;18.20;99.90
22908;DHT22;11620;50.050;8.690;2023-07-31T09:08:56;18.30;99.90
22908;DHT22;11620;50.050;8.690;2023-07-31T09:11:42;18.30;99.90
22908;DHT22;11620;50.050;8.690;2023-07-31T09:14:28;18.50;99.90
22908;DHT22;11620;50.050;8.690;2023-07-31T09:17:15;18.50;99.90
22908;DHT22;11620;50.050;8.690;2023-07-31T09:20:18;18.60;99.90
22908;DHT22;11620;50.050;8.690;2023-07-31T09:23:10;18.50;99.90
22908;DHT22;11620;50.050;8.690;2023-07-31T09:25:57;18.50;99.90
22908;DHT22;11620;50.050;8.690;2023-07-31T09:28:43;18.50;99.90
22908;DHT22;11620;50.050;8.690;2023-07-31T09:31:47;18.60;99.90
22908;DHT22;11620;50.050;8.690;2023-07-31T09:34:37;18.70;99.90
22908;DHT22;11620;50.050;8.690;2023-07-31T09:37:29;18.80;99.90
22908;DHT22;11620;50.050;8.690;2023-07-31T09:40:31;19.00;99.90
22908;DHT22;11620;50.050;8.690;2023-07-31T09:43:20;19.70;99.90
22908;DHT22;11620;50.050;8.690;2023-07-31T09:46:13;20.50;99.90
22908;DHT22;11620;50.050;8.690;2023-07-31T09:49:10;20.40;99.90
22908;DHT22;11620;50.050;8.690;2023-07-31T09:51:56;20.20;99.90
22908;DHT22;11620;50.050;8.690;2023-07-31T09:54:43;20.10;99.90
22908;DHT22;11620;50.050;8.690;2023-07-31T09:57:29;19.80;99.90
22908;DHT22;11620;50.050;8.690;2023-07-31T10:00:18;19.90;99.90
22908;DHT22;11620;50.050;8.690;2023-07-31T10:03:09;20.00;99.90
22908;DHT22;11620;50.050;8.690;2023-07-31T10:05:57;19.90;99.90
22908;DHT22;11620;50.050;8.690;2023-07-31T10:08:44;19.80;99.90
22908;DHT22;11620;50.050;8.690;2023-07-31T10:11:42;19.90;99.90
22908;DHT22;11620;50.050;8.690;2023-07-31T10:14:30;20.10;99.90
22908;DHT22;11620;50.050;8.690;2023-07-31T10:17:17;20.00;99.90
22908;DHT22;11620;50.050;8.690;2023-07-31T10:20:06;19.90;99.90
22908;DHT22;11620;50.050;8.690;2023-07-31T10:22:54;20.10;99.90
22908;DHT22;11620;50.050;8.690;2023-07-31T10:25:42;20.30;99.90
22908;DHT22;11620;50.050;8.690;2023-07-31T10:28:29;20.40;99.90
22908;DHT22;11620;50.050;8.690;2023-07-31T10:31:17;20.40;99.90
22908;DHT22;11620;50.050;8.690;2023-07-31T10:34:05;20.40;99.90
22908;DHT22;11620;50.050;8.690;2023-07-31T10:42:57;20.10;99.90
22908;DHT22;11620;50.050;8.690;2023-07-31T10:45:44;20.00;99.90
22908;DHT22;11620;50.050;8.690;2023-07-31T10:48:33;20.60;99.90
22908;DHT22;11620;50.050;8.690;2023-07-31T10:51:21;21.00;99.90
22908;DHT22;11620;50.050;8.690;2023-07-31T10:54:16;21.00;99.90
22908;DHT22;11620;50.050;8.690;2023-07-31T10:57:21;21.10;99.90
22908;DHT22;11620;50.050;8.690;2023-07-31T11:03:17;20.40;99.90
22908;DHT22;11620;50.050;8.690;2023-07-31T11:06:04;20.50;99.90
22908;DHT22;11620;50.050;8.690;2023-07-31T11:08:50;20.50;99.90
22908;DHT22;11620;50.050;8.690;2023-07-31T11:11:37;20.90;99.90
22908;DHT22;11620;50.050;8.690;2023-07-31T11:14:23;21.00;99.90
22908;DHT22;11620;50.050;8.690;2023-07-31T11:17:10;21.30;99.90
22908;DHT22;11620;50.050;8.690;2023-07-31T11:19:56;21.90;99.90
22908;DHT22;11620;50.050;8.690;2023-07-31T11:22:43;22.20;99.90
22908;DHT22;11620;50.050;8.690;2023-07-31T11:25:30;22.30;99.90
22908;DHT22;11620;50.050;8.690;2023-07-31T11:28:19;22.30;99.90
22908;DHT22;11620;50.050;8.690;2023-07-31T11:31:09;21.90;99.90
22908;DHT22;11620;50.050;8.690;2023-07-31T11:34:05;21.80;99.90
22908;DHT22;11620;50.050;8.690;2023-07-31T11:36:55;21.60;99.90
22908;DHT22;11620;50.050;8.690;2023-07-31T11:39:42;22.20;99.90
22908;DHT22;11620;50.050;8.690;2023-07-31T11:42:28;21.80;99.90
22908;DHT22;11620;50.050;8.690;2023-07-31T11:45:14;21.80;99.90
22908;DHT22;11620;50.050;8.690;2023-07-31T11:48:01;21.80;99.90
22908;DHT22;11620;50.050;8.690;2023-07-31T11:50:49;21.60;99.90
22908;DHT22;11620;50.050;8.690;2023-07-31T11:56:25;21.30;99.90
22908;DHT22;11620;50.050;8.690;2023-07-31T11:59:12;21.30;99.90
22908;DHT22;11620;50.050;8.690;2023-07-31T12:01:59;21.40;99.90
22908;DHT22;11620;50.050;8.690;2023-07-31T12:04:46;21.40;99.90
22908;DHT22;11620;50.050;8.690;2023-07-31T12:07:44;21.90;99.90
22908;DHT22;11620;50.050;8.690;2023-07-31T12:10:32;22.50;99.90
22908;DHT22;11620;50.050;8.690;2023-07-31T12:13:24;22.60;99.90
22908;DHT22;11620;50.050;8.690;2023-07-31T12:15:58;22.20;99.90
22908;DHT22;11620;50.050;8.690;2023-07-31T12:18:26;22.40;99.90
22908;DHT22;11620;50.050;8.690;2023-07-31T12:23:31;22.10;99.90
22908;DHT22;11620;50.050;8.690;2023-07-31T12:26:04;22.20;99.90
22908;DHT22;11620;50.050;8.690;2023-07-31T12:31:04;21.90;99.90
22908;DHT22;11620;50.050;8.690;2023-07-31T12:33:32;21.80;99.90
22908;DHT22;11620;50.050;8.690;2023-07-31T12:36:02;21.70;99.90
22908;DHT22;11620;50.050;8.690;2023-07-31T12:38:28;21.50;99.90
22908;DHT22;11620;50.050;8.690;2023-07-31T12:40:55;21.50;99.90
22908;DHT22;11620;50.050;8.690;2023-07-31T12:43:21;21.50;99.90
22908;DHT22;11620;50.050;8.690;2023-07-31T12:45:47;21.30;99.90
22908;DHT22;11620;50.050;8.690;2023-07-31T12:48:13;21.20;99.90
22908;DHT22;11620;50.050;8.690;2023-07-31T12:50:39;21.20;99.90
22908;DHT22;11620;50.050;8.690;2023-07-31T12:53:06;21.20;99.90
22908;DHT22;11620;50.050;8.690;2023-07-31T12:55:32;21.20;99.90
22908;DHT22;11620;50.050;8.690;2023-07-31T12:58:03;21.20;99.90
22908;DHT22;11620;50.050;8.690;2023-07-31T13:00:29;21.20;99.90
22908;DHT22;11620;50.050;8.690;2023-07-31T13:02:55;21.20;99.90
22908;DHT22;11620;50.050;8.690;2023-07-31T13:05:21;21.20;99.90
22908;DHT22;11620;50.050;8.690;2023-07-31T13:07:48;21.50;99.90
22908;DHT22;11620;50.050;8.690;2023-07-31T13:10:14;21.70;99.90
22908;DHT22;11620;50.050;8.690;2023-07-31T13:12:41;21.90;99.90
22908;DHT22;11620;50.050;8.690;2023-07-31T13:15:07;21.90;99.90
22908;DHT22;11620;50.050;8.690;2023-07-31T13:17:33;22.00;99.90
22908;DHT22;11620;50.050;8.690;2023-07-31T13:19:59;22.20;99.90
22908;DHT22;11620;50.050;8.690;2023-07-31T13:22:26;22.20;99.90
22908;DHT22;11620;50.050;8.690;2023-07-31T13:24:52;22.20;99.90
22908;DHT22;11620;50.050;8.690;2023-07-31T13:27:18;22.00;99.90
22908;DHT22;11620;50.050;8.690;2023-07-31T13:29:50;21.90;99.90
22908;DHT22;11620;50.050;8.690;2023-07-31T13:32:18;21.80;99.90
22908;DHT22;11620;50.050;8.690;2023-07-31T13:35:08;21.80;99.90
22908;DHT22;11620;50.050;8.690;2023-07-31T13:37:54;21.90;99.90
22908;DHT22;11620;50.050;8.690;2023-07-31T13:40:41;21.80;99.90
22908;DHT22;11620;50.050;8.690;2023-07-31T13:43:27;21.70;99.90
22908;DHT22;11620;50.050;8.690;2023-07-31T13:46:13;21.60;99.90
22908;DHT22;11620;50.050;8.690;2023-07-31T13:48:59;21.50;99.90
22908;DHT22;11620;50.050;8.690;2023-07-31T13:51:47;21.40;99.90
22908;DHT22;11620;50.050;8.690;2023-07-31T13:54:33;21.40;99.90
22908;DHT22;11620;50.050;8.690;2023-07-31T13:57:20;21.30;99.90
22908;DHT22;11620;50.050;8.690;2023-07-31T14:00:06;21.30;99.90
22908;DHT22;11620;50.050;8.690;2023-07-31T14:02:54;21.20;99.90
22908;DHT22;11620;50.050;8.690;2023-07-31T14:05:40;21.30;99.90
22908;DHT22;11620;50.050;8.690;2023-07-31T14:08:27;21.40;99.90
22908;DHT22;11620;50.050;8.690;2023-07-31T14:11:13;21.30;99.90
22908;DHT22;11620;50.050;8.690;2023-07-31T14:13:59;21.50;99.90
22908;DHT22;11620;50.050;8.690;2023-07-31T14:16:47;21.20;99.90
22908;DHT22;11620;50.050;8.690;2023-07-31T14:19:34;21.20;99.90
22908;DHT22;11620;50.050;8.690;2023-07-31T14:22:30;21.20;99.90
22908;DHT22;11620;50.050;8.690;2023-07-31T14:25:16;21.10;99.90
22908;DHT22;11620;50.050;8.690;2023-07-31T14:28:02;21.00;99.90
22908;DHT22;11620;50.050;8.690;2023-07-31T14:30:49;20.90;99.90
22908;DHT22;11620;50.050;8.690;2023-07-31T14:33:35;20.70;99.90
22908;DHT22;11620;50.050;8.690;2023-07-31T14:36:22;20.60;99.90
22908;DHT22;11620;50.050;8.690;2023-07-31T14:39:08;20.70;99.90
22908;DHT22;11620;50.050;8.690;2023-07-31T14:41:54;20.60;99.90
22908;DHT22;11620;50.050;8.690;2023-07-31T14:44:41;20.60;99.90
22908;DHT22;11620;50.050;8.690;2023-07-31T14:47:27;20.50;99.90
22908;DHT22;11620;50.050;8.690;2023-07-31T14:50:13;20.60;99.90
22908;DHT22;11620;50.050;8.690;2023-07-31T14:53:00;20.70;99.90
22908;DHT22;11620;50.050;8.690;2023-07-31T14:55:46;20.70;99.90
22908;DHT22;11620;50.050;8.690;2023-07-31T14:58:32;20.40;99.90
22908;DHT22;11620;50.050;8.690;2023-07-31T15:01:19;20.50;99.90
22908;DHT22;11620;50.050;8.690;2023-07-31T15:04:05;20.30;99.90
22908;DHT22;11620;50.050;8.690;2023-07-31T15:06:52;20.30;99.90
22908;DHT22;11620;50.050;8.690;2023-07-31T15:09:39;20.20;99.90
22908;DHT22;11620;50.050;8.690;2023-07-31T15:12:26;20.30;99.90
22908;DHT22;11620;50.050;8.690;2023-07-31T15:15:14;20.30;99.90
22908;DHT22;11620;50.050;8.690;2023-07-31T15:18:01;20.10;99.90
22908;DHT22;11620;50.050;8.690;2023-07-31T15:20:47;20.20;99.90
22908;DHT22;11620;50.050;8.690;2023-07-31T15:23:34;20.10;99.90
22908;DHT22;11620;50.050;8.690;2023-07-31T15:26:20;20.10;99.90
22908;DHT22;11620;50.050;8.690;2023-07-31T15:29:07;20.00;99.90
22908;DHT22;11620;50.050;8.690;2023-07-31T15:31:58;20.00;99.90
22908;DHT22;11620;50.050;8.690;2023-07-31T15:34:45;20.00;99.90
22908;DHT22;11620;50.050;8.690;2023-07-31T15:37:31;20.10;99.90
22908;DHT22;11620;50.050;8.690;2023-07-31T15:40:17;19.80;99.90
22908;DHT22;11620;50.050;8.690;2023-07-31T15:43:04;19.90;99.90
22908;DHT22;11620;50.050;8.690;2023-07-31T15:45:50;20.00;99.90
22908;DHT22;11620;50.050;8.690;2023-07-31T15:48:36;19.70;99.90
22908;DHT22;11620;50.050;8.690;2023-07-31T15:51:23;19.70;99.90
22908;DHT22;11620;50.050;8.690;2023-07-31T15:54:10;19.70;99.90
22908;DHT22;11620;50.050;8.690;2023-07-31T15:56:56;19.60;99.90
22908;DHT22;11620;50.050;8.690;2023-07-31T15:59:42;19.50;99.90
22908;DHT22;11620;50.050;8.690;2023-07-31T16:02:29;19.70;99.90
22908;DHT22;11620;50.050;8.690;2023-07-31T16:05:15;19.60;99.90
22908;DHT22;11620;50.050;8.690;2023-07-31T16:08:02;19.60;99.90
22908;DHT22;11620;50.050;8.690;2023-07-31T16:10:48;19.80;99.90
22908;DHT22;11620;50.050;8.690;2023-07-31T16:13:35;19.70;99.90
22908;DHT22;11620;50.050;8.690;2023-07-31T16:16:21;19.70;99.90
22908;DHT22;11620;50.050;8.690;2023-07-31T16:19:08;19.80;99.90
22908;DHT22;11620;50.050;8.690;2023-07-31T16:21:54;19.80;99.90
22908;DHT22;11620;50.050;8.690;2023-07-31T16:24:41;19.80;99.90
22908;DHT22;11620;50.050;8.690;2023-07-31T16:27:28;19.80;99.90
22908;DHT22;11620;50.050;8.690;2023-07-31T16:30:14;19.80;99.90
22908;DHT22;11620;50.050;8.690;2023-07-31T16:33:01;19.80;99.90
22908;DHT22;11620;50.050;8.690;2023-07-31T16:35:48;19.60;99.90
22908;DHT22;11620;50.050;8.690;2023-07-31T16:38:34;19.80;99.90
22908;DHT22;11620;50.050;8.690;2023-07-31T16:41:21;19.70;99.90
22908;DHT22;11620;50.050;8.690;2023-07-31T16:44:09;19.70;99.90
22908;DHT22;11620;50.050;8.690;2023-07-31T16:46:55;19.60;99.90
22908;DHT22;11620;50.050;8.690;2023-07-31T16:49:42;19.70;99.90
22908;DHT22;11620;50.050;8.690;2023-07-31T16:52:28;19.50;99.90
22908;DHT22;11620;50.050;8.690;2023-07-31T16:55:14;19.40;99.90
22908;DHT22;11620;50.050;8.690;2023-07-31T16:58:01;19.40;99.90
22908;DHT22;11620;50.050;8.690;2023-07-31T17:00:47;19.50;99.90
22908;DHT22;11620;50.050;8.690;2023-07-31T17:03:33;19.30;99.90
22908;DHT22;11620;50.050;8.690;2023-07-31T17:06:20;19.30;99.90
22908;DHT22;11620;50.050;8.690;2023-07-31T17:09:06;19.10;99.90
22908;DHT22;11620;50.050;8.690;2023-07-31T17:11:53;18.90;99.90
22908;DHT22;11620;50.050;8.690;2023-07-31T17:14:40;18.70;99.90
22908;DHT22;11620;50.050;8.690;2023-07-31T17:17:26;18.60;99.90
22908;DHT22;11620;50.050;8.690;2023-07-31T17:20:14;18.40;99.90
22908;DHT22;11620;50.050;8.690;2023-07-31T17:23:00;18.40;99.90
22908;DHT22;11620;50.050;8.690;2023-07-31T17:25:46;18.40;99.90
22908;DHT22;11620;50.050;8.690;2023-07-31T17:28:33;18.30;99.90
22908;DHT22;11620;50.050;8.690;2023-07-31T17:31:19;18.20;99.90
22908;DHT22;11620;50.050;8.690;2023-07-31T17:34:06;18.20;99.90
22908;DHT22;11620;50.050;8.690;2023-07-31T17:36:53;18.10;99.90
22908;DHT22;11620;50.050;8.690;2023-07-31T17:39:39;18.20;99.90
22908;DHT22;11620;50.050;8.690;2023-07-31T17:42:26;18.20;99.90
22908;DHT22;11620;50.050;8.690;2023-07-31T17:45:12;18.00;99.90
22908;DHT22;11620;50.050;8.690;2023-07-31T17:47:59;18.00;99.90
22908;DHT22;11620;50.050;8.690;2023-07-31T17:50:52;17.80;99.90